Time;durP1;ratioP1;P1;durP2;ratioP2;P2;SDS_P1;SDS_P2;PMS_P1;PMS_P2;Temp;Humidity;BMP_temperature;BMP_pressure;BME280_temperature;BME280_humidity;BME280_pressure;Samples;Min_cycle;Max_cycle;Signal;HPM_P1;HPM_P2
2022/05/12 00:02:09;;;;;;;3.80;2.40;;;;;;;18.26;38.20;98873.94;1699515;83;20976;-66
2022/05/12 00:04:38;;;;;;;3.95;2.27;;;;;;;18.23;38.38;98869.02;1677203;85;20909;-68
2022/05/12 00:07:06;;;;;;;5.90;2.83;;;;;;;18.23;38.50;98870.89;1679309;85;21008;-66
2022/05/12 00:09:32;;;;;;;4.58;2.30;;;;;;;18.22;38.62;98863.36;1674349;85;21703;-69
2022/05/12 00:12:00;;;;;;;3.22;2.62;;;;;;;18.21;38.71;98863.05;1674196;85;21006;-72
2022/05/12 00:14:27;;;;;;;4.40;2.30;;;;;;;18.21;38.88;98859.02;1676565;85;20973;-66
2022/05/12 00:16:56;;;;;;;6.30;2.35;;;;;;;18.20;38.99;98865.44;1685683;84;20990;-67
2022/05/12 00:19:26;;;;;;;4.08;2.30;;;;;;;18.18;39.11;98860.00;1683171;85;21016;-67
2022/05/12 00:21:54;;;;;;;4.33;2.80;;;;;;;18.15;39.21;98858.59;1686787;85;21167;-72
2022/05/12 00:24:20;;;;;;;5.03;2.58;;;;;;;18.11;39.40;98865.52;1682986;85;20983;-68
2022/05/12 00:26:47;;;;;;;3.50;2.42;;;;;;;18.08;39.56;98857.90;1682551;84;21029;-68
2022/05/12 00:29:13;;;;;;;3.10;2.27;;;;;;;18.05;39.68;98854.84;1685923;85;21039;-67
2022/05/12 00:31:42;;;;;;;3.52;2.67;;;;;;;18.02;39.84;98848.05;1686662;85;21054;-66
2022/05/12 00:34:09;;;;;;;3.42;2.83;;;;;;;17.98;39.90;98851.45;1681956;85;21273;-66
2022/05/12 00:36:35;;;;;;;4.12;2.60;;;;;;;17.93;40.11;98848.13;1681801;85;20931;-68
2022/05/12 00:39:04;;;;;;;3.75;3.08;;;;;;;17.89;40.28;98842.89;1686074;85;20972;-67
2022/05/12 00:41:31;;;;;;;4.45;2.52;;;;;;;17.87;40.41;98849.04;1683829;84;21106;-66
2022/05/12 00:44:02;;;;;;;6.00;2.72;;;;;;;17.84;40.59;98844.12;1683438;83;20952;-67
2022/05/12 00:46:35;;;;;;;2.98;2.42;;;;;;;17.80;40.83;98841.61;1697747;83;21435;-67
2022/05/12 00:49:13;;;;;;;4.45;2.52;;;;;;;17.78;40.92;98839.69;1700729;83;20960;-67
2022/05/12 00:51:44;;;;;;;5.83;2.85;;;;;;;17.76;41.09;98837.73;1668785;85;20977;-67
2022/05/12 00:54:24;;;;;;;2.67;2.37;;;;;;;17.73;41.27;98841.70;1671947;84;21017;-65
2022/05/12 00:56:51;;;;;;;6.00;2.90;;;;;;;17.71;41.54;98833.57;1672357;84;21001;-68
2022/05/12 00:59:29;;;;;;;3.98;2.45;;;;;;;17.68;41.75;98836.72;1672352;85;21119;-70
2022/05/12 01:01:56;;;;;;;4.67;2.55;;;;;;;17.67;41.98;98837.27;1671734;85;20948;-68
2022/05/12 01:04:23;;;;;;;4.30;2.52;;;;;;;17.68;42.23;98834.85;1671717;85;21008;-70
2022/05/12 01:06:51;;;;;;;3.10;2.80;;;;;;;17.68;42.46;98832.16;1669130;85;20908;-73
2022/05/12 01:09:20;;;;;;;3.75;2.65;;;;;;;17.69;42.55;98836.50;1672359;85;20951;-69
2022/05/12 01:11:48;;;;;;;3.98;3.02;;;;;;;17.69;42.70;98832.98;1671791;85;22000;-68
2022/05/12 01:14:15;;;;;;;2.60;2.40;;;;;;;17.69;42.83;98828.95;1671763;85;21067;-66
2022/05/12 01:16:48;;;;;;;6.08;3.20;;;;;;;17.68;42.96;98820.58;1671679;85;20971;-69
2022/05/12 01:19:18;;;;;;;3.05;2.58;;;;;;;17.64;43.21;98817.55;1672359;85;20987;-69
2022/05/12 01:21:46;;;;;;;3.70;2.60;;;;;;;17.66;43.44;98823.52;1673669;85;20940;-67
2022/05/12 01:24:12;;;;;;;3.20;2.52;;;;;;;17.66;43.57;98828.89;1679570;85;22052;-67
2022/05/12 01:26:39;;;;;;;5.67;2.75;;;;;;;17.66;43.81;98826.72;1679557;85;21444;-67
2022/05/12 01:29:06;;;;;;;4.47;2.47;;;;;;;17.67;43.97;98827.03;1678930;85;20965;-67
2022/05/12 01:31:33;;;;;;;4.97;2.95;;;;;;;17.67;44.10;98822.99;1679488;85;21490;-68
2022/05/12 01:34:01;;;;;;;4.47;3.08;;;;;;;17.69;44.23;98823.58;1679433;85;20901;-68
2022/05/12 01:36:28;;;;;;;5.37;2.77;;;;;;;17.68;44.40;98824.09;1679588;85;21163;-67
2022/05/12 01:38:55;;;;;;;4.55;3.08;;;;;;;17.68;44.55;98821.92;1674602;85;21008;-69
2022/05/12 01:41:21;;;;;;;4.53;3.17;;;;;;;17.69;44.65;98823.05;1638146;87;21045;-67
2022/05/12 01:43:48;;;;;;;5.50;2.80;;;;;;;17.69;44.83;98819.54;1637905;87;20937;-71
2022/05/12 01:46:16;;;;;;;5.37;2.80;;;;;;;17.68;45.01;98820.06;1638280;87;21515;-72
2022/05/12 01:48:43;;;;;;;4.17;3.00;;;;;;;17.66;45.17;98810.06;1620567;85;21924;-68
2022/05/12 01:51:11;;;;;;;4.97;3.00;;;;;;;17.65;45.31;98806.27;1671698;85;21043;-67
2022/05/12 01:53:37;;;;;;;2.98;2.70;;;;;;;17.64;45.50;98814.03;1671845;85;21466;-68
2022/05/12 01:56:05;;;;;;;3.52;2.98;;;;;;;17.64;45.67;98805.97;1671623;85;20991;-65
2022/05/12 01:58:32;;;;;;;3.67;2.83;;;;;;;17.63;45.82;98815.90;1672314;85;21556;-66
2022/05/12 02:00:59;;;;;;;3.52;3.20;;;;;;;17.63;45.95;98808.35;1671804;85;21171;-67
2022/05/12 02:03:25;;;;;;;3.72;2.95;;;;;;;17.64;46.03;98809.48;1671773;85;21007;-69
2022/05/12 02:05:52;;;;;;;5.33;2.95;;;;;;;17.64;46.17;98814.03;1671813;85;21569;-69
2022/05/12 02:08:18;;;;;;;4.28;3.12;;;;;;;17.62;46.36;98810.25;1677294;85;20932;-67
2022/05/12 02:10:48;;;;;;;7.10;3.62;;;;;;;17.61;46.51;98813.15;1679602;85;21035;-67
2022/05/12 02:13:17;;;;;;;4.30;3.37;;;;;;;17.61;46.67;98814.49;1679614;85;21159;-66
2022/05/12 02:15:44;;;;;;;6.25;3.05;;;;;;;17.60;46.78;98810.16;1678509;85;20914;-68
2022/05/12 02:18:10;;;;;;;4.80;2.98;;;;;;;17.60;46.88;98812.32;1673095;85;21553;-68
2022/05/12 02:20:37;;;;;;;4.87;2.95;;;;;;;17.59;46.99;98811.22;1674390;85;20890;-70
2022/05/12 02:23:04;;;;;;;3.25;2.95;;;;;;;17.58;47.16;98813.61;1674528;85;21009;-67
2022/05/12 02:25:31;;;;;;;3.87;3.00;;;;;;;17.55;47.35;98816.75;1674363;85;21151;-67
2022/05/12 02:27:58;;;;;;;3.62;3.00;;;;;;;17.52;47.49;98812.63;1673611;85;20893;-67
2022/05/12 02:30:28;;;;;;;5.08;3.27;;;;;;;17.51;47.61;98808.83;1674396;85;20988;-67
2022/05/12 02:32:54;;;;;;;4.35;2.98;;;;;;;17.49;47.75;98813.63;1674452;85;20961;-67
2022/05/12 02:35:21;;;;;;;4.70;3.10;;;;;;;17.47;47.84;98814.39;1674514;85;21039;-66
2022/05/12 02:37:48;;;;;;;4.62;3.17;;;;;;;17.46;47.96;98810.05;1673840;85;21229;-65
2022/05/12 02:40:18;;;;;;;5.83;3.33;;;;;;;17.49;47.98;98812.28;1674318;85;20965;-68
2022/05/12 02:42:44;;;;;;;6.37;3.22;;;;;;;17.50;48.07;98808.52;1674437;85;20957;-68
2022/05/12 02:45:12;;;;;;;5.25;3.55;;;;;;;17.49;48.13;98812.28;1674398;85;21593;-70
2022/05/12 02:47:40;;;;;;;5.20;3.60;;;;;;;17.49;48.25;98810.94;1673762;85;21435;-67
2022/05/12 02:50:07;;;;;;;3.95;3.42;;;;;;;17.46;48.36;98806.84;1674444;85;21107;-66
2022/05/12 02:52:34;;;;;;;3.83;3.00;;;;;;;17.47;48.43;98811.70;1674550;85;20941;-67
2022/05/12 02:55:01;;;;;;;5.15;3.37;;;;;;;17.47;48.55;98803.63;1674865;85;21051;-67
2022/05/12 02:57:28;;;;;;;5.85;3.47;;;;;;;17.49;48.57;98800.19;1673916;85;21562;-67
2022/05/12 02:59:54;;;;;;;4.72;3.02;;;;;;;17.50;48.63;98801.28;1674598;85;21012;-69
2022/05/12 03:02:21;;;;;;;3.90;3.05;;;;;;;17.55;48.61;98797.92;1674522;85;21263;-69
2022/05/12 03:04:48;;;;;;;3.30;2.95;;;;;;;17.59;48.63;98805.84;1674605;85;21001;-71
2022/05/12 03:07:15;;;;;;;4.47;2.83;;;;;;;17.66;48.57;98797.96;1673883;85;21075;-70
2022/05/12 03:09:41;;;;;;;7.90;3.35;;;;;;;17.72;48.46;98797.05;1674492;85;20999;-69
2022/05/12 03:12:09;;;;;;;5.15;2.77;;;;;;;17.79;48.37;98797.73;1674674;85;20941;-68
2022/05/12 03:14:35;;;;;;;4.35;3.08;;;;;;;17.87;48.23;98795.23;1674586;85;21171;-68
2022/05/12 03:17:03;;;;;;;6.15;3.65;;;;;;;17.95;48.08;98793.54;1668411;85;20948;-67
2022/05/12 03:19:31;;;;;;;3.33;2.80;;;;;;;18.01;47.92;98794.48;1666609;85;21019;-68
2022/05/12 03:21:59;;;;;;;4.47;3.15;;;;;;;18.06;47.85;98797.28;1666605;86;21444;-69
2022/05/12 03:24:25;;;;;;;4.97;3.37;;;;;;;18.11;47.75;98799.56;1666500;86;20995;-69
2022/05/12 03:26:51;;;;;;;4.22;3.12;;;;;;;18.19;47.69;98799.73;1666582;85;21217;-69
2022/05/12 03:29:18;;;;;;;3.77;3.37;;;;;;;18.28;47.54;98802.34;1673009;85;20961;-66
2022/05/12 03:31:45;;;;;;;5.35;3.17;;;;;;;18.41;47.32;98800.23;1674641;85;21041;-67
2022/05/12 03:34:12;;;;;;;3.83;2.98;;;;;;;18.53;47.05;98800.25;1674536;85;20984;-68
2022/05/12 03:36:39;;;;;;;7.53;3.42;;;;;;;18.66;46.82;98799.16;1674565;85;20912;-70
2022/05/12 03:39:07;;;;;;;8.50;3.52;;;;;;;18.78;46.54;98802.11;1673904;85;21270;-67
2022/05/12 03:41:35;;;;;;;4.60;3.45;;;;;;;18.85;46.31;98800.09;1674515;85;21024;-70
2022/05/12 03:46:47;;;;;;;6.33;3.60;;;;;;;19.04;46.04;98796.68;1674069;85;21059;-71
2022/05/12 03:49:14;;;;;;;5.33;3.10;;;;;;;19.24;45.79;98794.91;1674560;85;20976;-71
2022/05/12 03:51:40;;;;;;;4.72;3.50;;;;;;;19.50;45.36;98792.42;1674516;85;21151;-68
2022/05/12 03:54:07;;;;;;;3.67;3.37;;;;;;;19.76;44.87;98790.16;1674377;85;20937;-67
2022/05/12 03:56:33;;;;;;;5.83;3.67;;;;;;;19.96;44.38;98788.59;1674378;85;20933;-68
2022/05/12 03:59:00;;;;;;;3.65;3.35;;;;;;;20.20;43.94;98785.98;1673898;85;20997;-68
2022/05/12 04:01:26;;;;;;;3.67;3.17;;;;;;;20.44;43.47;98786.59;1674549;85;20947;-67
2022/05/12 04:03:53;;;;;;;6.95;3.30;;;;;;;20.67;43.01;98786.38;1674432;85;21168;-67
2022/05/12 04:06:19;;;;;;;4.95;3.27;;;;;;;20.89;42.55;98784.45;1674509;85;20937;-68
2022/05/12 04:08:46;;;;;;;9.35;3.33;;;;;;;21.16;42.08;98783.16;1673845;85;21528;-68
2022/05/12 04:11:12;;;;;;;9.18;3.45;;;;;;;21.43;41.52;98780.45;1674535;85;21016;-69
2022/05/12 04:13:41;;;;;;;3.77;3.10;;;;;;;21.67;40.99;98783.08;1674603;85;20917;-71
2022/05/12 04:16:08;;;;;;;4.75;3.25;;;;;;;21.89;40.52;98786.55;1674532;85;21274;-67
2022/05/12 04:18:35;;;;;;;4.33;3.22;;;;;;;22.23;39.44;98788.94;1674562;85;21522;-67
2022/05/12 04:21:01;;;;;;;3.67;3.27;;;;;;;22.23;39.44;98788.94;1671843;85;20955;-70
2022/05/12 04:23:29;;;;;;;4.55;3.30;;;;;;;22.42;39.46;98782.80;1671786;85;20924;-67
2022/05/12 04:25:55;;;;;;;7.37;3.02;;;;;;;22.64;38.99;98778.61;1671992;85;21519;-70
2022/05/12 04:28:21;;;;;;;7.95;3.60;;;;;;;22.78;38.70;98779.76;1676528;85;21231;-69
2022/05/12 04:30:48;;;;;;;5.95;3.15;;;;;;;22.96;38.44;98787.41;1679622;85;20925;-71
2022/05/12 04:35:59;;;;;;;6.90;3.92;;;;;;;23.55;37.54;98787.81;1679273;85;21079;-67
2022/05/12 04:38:26;;;;;;;3.67;2.90;;;;;;;23.96;36.92;98781.82;1679205;85;21411;-67
2022/05/12 04:40:52;;;;;;;3.83;2.72;;;;;;;24.36;36.33;98780.97;1679638;85;22523;-70
2022/05/12 04:43:19;;;;;;;5.83;3.10;;;;;;;24.78;35.61;98777.32;1679689;85;20972;-68
2022/05/12 04:45:46;;;;;;;6.03;2.75;;;;;;;25.17;34.85;98774.66;1679596;85;21596;-67
2022/05/12 04:48:13;;;;;;;4.95;2.90;;;;;;;25.46;34.23;98772.05;1678701;85;21047;-69
2022/05/12 04:50:42;;;;;;;5.15;3.10;;;;;;;25.70;33.89;98773.78;1679518;85;21632;-71
2022/05/12 04:53:09;;;;;;;2.90;2.60;;;;;;;26.02;33.32;98772.41;1679620;85;21131;-67
2022/05/12 04:55:36;;;;;;;4.15;2.37;;;;;;;26.24;32.74;98772.74;1679565;85;20943;-67
2022/05/12 04:58:03;;;;;;;5.78;2.80;;;;;;;26.36;32.45;98766.33;1678916;85;20980;-67
2022/05/12 05:00:35;;;;;;;4.70;3.02;;;;;;;26.55;32.07;98773.21;1679518;85;21036;-68
2022/05/12 05:03:02;;;;;;;3.83;2.95;;;;;;;26.70;31.73;98762.92;1679615;85;21047;-67
2022/05/12 05:05:29;;;;;;;4.97;2.62;;;;;;;26.84;31.49;98765.25;1679559;85;21250;-69
2022/05/12 05:07:56;;;;;;;4.75;2.90;;;;;;;27.03;31.23;98760.36;1678809;85;21004;-67
2022/05/12 05:10:22;;;;;;;3.22;2.55;;;;;;;27.22;30.99;98763.91;1679698;85;20917;-68
2022/05/12 05:12:49;;;;;;;5.37;3.00;;;;;;;27.45;30.57;98757.00;1679620;85;21004;-67
2022/05/12 05:15:17;;;;;;;7.40;2.75;;;;;;;27.72;30.18;98757.67;1676881;85;21573;-67
2022/05/12 05:17:44;;;;;;;6.83;2.42;;;;;;;27.94;29.74;98762.50;1685035;84;21312;-71
2022/05/12 05:20:18;;;;;;;2.98;2.42;;;;;;;28.18;29.48;98755.54;1679546;85;21062;-68
2022/05/12 05:22:46;;;;;;;2.57;2.37;;;;;;;28.37;29.18;98754.88;1679652;85;21566;-68
2022/05/12 05:25:16;;;;;;;3.98;2.45;;;;;;;28.76;28.89;98752.47;1676825;85;21513;-67
2022/05/12 05:27:45;;;;;;;4.33;2.52;;;;;;;28.99;28.18;98742.41;1671780;85;20975;-70
2022/05/12 05:30:17;;;;;;;3.10;2.75;;;;;;;29.10;28.00;98741.05;1672230;85;21234;-71
2022/05/12 05:32:43;;;;;;;4.20;2.50;;;;;;;29.28;27.72;98742.29;1671690;85;21015;-69
2022/05/12 05:35:12;;;;;;;5.10;2.60;;;;;;;29.43;27.44;98734.84;1671987;85;20911;-71
2022/05/12 05:37:40;;;;;;;5.83;2.80;;;;;;;29.69;27.29;98728.98;1671767;85;21430;-71
2022/05/12 05:40:08;;;;;;;6.35;2.67;;;;;;;29.93;26.84;98736.34;1672204;85;20940;-72
2022/05/12 05:42:35;;;;;;;7.05;2.45;;;;;;;30.21;26.52;98728.73;1671871;85;21871;-71
2022/05/12 05:45:10;;;;;;;3.80;2.70;;;;;;;30.51;26.06;98728.71;1673309;85;20995;-68
2022/05/12 05:47:30;;;;;;;3.95;3.20;;;;;;;30.72;25.81;98728.11;1670879;85;20920;-71
2022/05/12 05:49:56;;;;;;;4.03;2.30;;;;;;;30.83;25.45;98722.57;1672201;85;21454;-68
2022/05/12 05:55:09;;;;;;;3.25;2.55;;;;;;;31.33;24.97;98721.03;1672015;85;21284;-69
2022/05/12 05:57:36;;;;;;;4.75;2.72;;;;;;;31.53;24.78;98716.27;1671728;85;20999;-68
2022/05/12 06:00:05;;;;;;;3.67;2.67;;;;;;;31.76;24.46;98716.30;1671649;85;20948;-68
2022/05/12 06:02:33;;;;;;;4.50;2.52;;;;;;;32.01;24.18;98713.85;1672083;85;21055;-68
2022/05/12 06:05:00;;;;;;;6.95;2.65;;;;;;;32.13;23.94;98707.08;1677440;85;20969;-68
2022/05/12 06:07:28;;;;;;;4.80;2.33;;;;;;;32.22;23.80;98701.80;1679973;85;21162;-69
2022/05/12 06:09:54;;;;;;;6.62;2.52;;;;;;;32.22;23.73;98699.05;1679497;85;20956;-69
2022/05/12 06:12:20;;;;;;;5.05;2.40;;;;;;;32.21;23.72;98702.12;1678696;85;21001;-69
2022/05/12 06:14:48;;;;;;;3.85;2.45;;;;;;;32.17;23.80;98702.55;1674584;85;20888;-70
2022/05/12 06:17:15;;;;;;;2.87;2.37;;;;;;;32.25;23.76;98696.99;1671597;85;21022;-70
2022/05/12 06:19:41;;;;;;;5.58;2.47;;;;;;;32.35;23.77;98702.71;1671732;85;21270;-69
2022/05/12 06:22:08;;;;;;;6.72;2.20;;;;;;;32.43;23.75;98699.11;1672165;85;21063;-68
2022/05/12 06:24:35;;;;;;;5.87;2.52;;;;;;;32.65;23.62;98693.90;1675848;85;20984;-70
2022/05/12 06:27:02;;;;;;;7.30;2.37;;;;;;;32.87;23.39;98689.47;1679859;85;21088;-70
2022/05/12 06:29:29;;;;;;;6.53;2.42;;;;;;;33.14;23.09;98689.55;1679816;85;20940;-71
2022/05/12 06:31:56;;;;;;;5.12;3.02;;;;;;;33.35;22.65;98693.06;1673590;85;21271;-73
2022/05/12 06:34:22;;;;;;;17.70;2.80;;;;;;;33.49;22.57;98682.00;1671835;85;21033;-71
2022/05/12 06:36:51;;;;;;;3.20;2.00;;;;;;;33.67;22.56;98688.17;1678735;85;20949;-73
2022/05/12 06:39:18;;;;;;;4.08;2.17;;;;;;;33.94;22.37;98691.69;1679889;85;20972;-67
2022/05/12 06:41:44;;;;;;;6.05;2.37;;;;;;;34.14;21.99;98677.03;1678942;85;20964;-67
2022/05/12 06:44:11;;;;;;;8.40;2.20;;;;;;;34.35;21.86;98676.10;1679587;85;21253;-71
2022/05/12 06:46:38;;;;;;;5.17;2.40;;;;;;;34.61;21.68;98675.20;1673656;85;21450;-68
2022/05/12 06:49:05;;;;;;;2.75;2.15;;;;;;;34.77;21.42;98666.43;1669171;85;21015;-68
2022/05/12 06:51:32;;;;;;;4.55;2.20;;;;;;;34.93;21.34;98668.70;1672335;85;21088;-70
2022/05/12 06:53:59;;;;;;;3.20;2.52;;;;;;;35.19;21.08;98663.59;1658981;85;20947;-72
2022/05/12 06:56:26;;;;;;;7.20;2.45;;;;;;;35.38;20.71;98675.37;1671939;85;21230;-68
2022/05/12 06:58:53;;;;;;;4.62;2.70;;;;;;;35.57;20.55;98676.91;1675431;85;20952;-68
2022/05/12 07:01:20;;;;;;;6.90;2.37;;;;;;;35.67;20.15;98665.89;1678417;85;20953;-72
2022/05/12 07:03:46;;;;;;;4.70;2.17;;;;;;;35.77;20.26;98652.34;1686503;85;21487;-68
2022/05/12 07:06:13;;;;;;;4.47;2.62;;;;;;;36.09;19.98;98655.97;1686926;85;20971;-67
2022/05/12 07:08:41;;;;;;;4.45;2.20;;;;;;;36.17;19.84;98661.91;1685409;85;21245;-68
2022/05/12 07:11:10;;;;;;;6.62;2.35;;;;;;;36.14;19.88;98661.23;1681302;85;20939;-67
2022/05/12 07:13:36;;;;;;;4.95;2.45;;;;;;;36.23;19.91;98660.48;1681792;85;20963;-71
2022/05/12 07:16:04;;;;;;;6.50;2.08;;;;;;;36.41;19.79;98654.79;1683172;85;21521;-68
2022/05/12 07:18:31;;;;;;;5.83;2.40;;;;;;;36.75;19.32;98649.06;1680388;85;21083;-69
2022/05/12 07:26:40;;;;;;;4.28;2.58;;;;;;;37.58;18.80;98643.48;1674032;85;21227;-71
2022/05/12 07:29:10;;;;;;;6.65;2.40;;;;;;;37.88;18.47;98645.86;1676339;85;21008;-69
2022/05/12 07:31:37;;;;;;;3.42;2.10;;;;;;;38.07;18.28;98642.99;1676862;85;20964;-74
2022/05/12 07:34:04;;;;;;;6.03;2.40;;;;;;;38.18;18.03;98634.84;1676060;85;21305;-70
2022/05/12 07:36:36;;;;;;;4.55;2.40;;;;;;;38.10;17.89;98631.15;1678838;85;20968;-69
2022/05/12 07:39:03;;;;;;;5.58;2.72;;;;;;;37.96;17.96;98630.94;1675695;85;21039;-71
2022/05/12 07:41:29;;;;;;;2.98;2.30;;;;;;;37.67;17.84;98624.05;1678873;85;21103;-70
2022/05/12 07:43:56;;;;;;;3.20;2.40;;;;;;;37.40;18.16;98622.34;1678435;85;21036;-68
2022/05/12 07:46:27;;;;;;;5.15;2.50;;;;;;;37.32;18.42;98612.25;1678907;85;21837;-69
2022/05/12 07:48:54;;;;;;;5.70;2.45;;;;;;;37.39;18.45;98624.08;1677101;85;20955;-68
2022/05/12 07:51:20;;;;;;;13.53;3.10;;;;;;;37.34;18.44;98620.19;1673278;85;21019;-67
2022/05/12 07:53:47;;;;;;;7.20;2.35;;;;;;;37.24;18.12;98615.25;1673270;85;21058;-70
2022/05/12 07:56:20;;;;;;;5.80;2.25;;;;;;;36.82;18.13;98620.11;1677832;85;21083;-69
2022/05/12 07:58:46;;;;;;;4.78;2.40;;;;;;;36.50;18.48;98617.24;1677611;85;21185;-67
2022/05/12 08:01:15;;;;;;;3.98;2.05;;;;;;;36.48;18.56;98623.13;1678194;84;20917;-65
2022/05/12 08:03:42;;;;;;;5.80;2.47;;;;;;;36.41;18.96;98624.33;1704576;83;21049;-67
2022/05/12 08:06:09;;;;;;;3.45;2.20;;;;;;;36.42;19.26;98616.83;1688800;83;21067;-69
2022/05/12 08:08:36;;;;;;;8.08;2.30;;;;;;;36.65;18.82;98607.27;1707452;84;20944;-68
2022/05/12 08:11:05;;;;;;;5.60;2.47;;;;;;;37.07;18.21;98609.59;1678748;84;21113;-66
2022/05/12 08:13:33;;;;;;;5.62;2.62;;;;;;;37.44;17.87;98609.34;1664275;86;20954;-69
2022/05/12 08:15:59;;;;;;;7.15;2.27;;;;;;;37.60;17.89;98600.33;1678771;85;21543;-67
2022/05/12 08:18:26;;;;;;;4.05;2.37;;;;;;;37.79;17.65;98590.34;1693874;84;21053;-67
2022/05/12 08:20:53;;;;;;;4.78;2.40;;;;;;;37.91;17.60;98592.97;1695057;84;20954;-65
2022/05/12 08:23:20;;;;;;;5.85;2.12;;;;;;;37.99;17.29;98601.63;1668819;85;21236;-68
2022/05/12 08:25:47;;;;;;;4.20;2.15;;;;;;;37.90;17.26;98596.91;1677989;85;21009;-68
2022/05/12 08:28:16;;;;;;;4.40;1.95;;;;;;;37.73;17.38;98584.90;1695658;84;21100;-66
2022/05/12 08:30:45;;;;;;;5.03;1.95;;;;;;;37.63;17.43;98587.11;1678887;83;20949;-67
2022/05/12 08:33:12;;;;;;;7.15;2.20;;;;;;;37.73;17.50;98583.70;1693890;84;21306;-65
2022/05/12 08:35:42;;;;;;;5.30;2.30;;;;;;;37.95;17.22;98589.65;1693423;83;21001;-66
2022/05/12 08:38:09;;;;;;;6.72;2.30;;;;;;;38.07;17.25;98588.05;1662365;86;20898;-68
2022/05/12 08:40:52;;;;;;;3.47;2.17;;;;;;;38.37;17.11;98580.63;1662556;86;21564;-67
2022/05/12 08:43:27;;;;;;;6.97;2.60;;;;;;;38.69;17.05;98584.62;1635805;86;21049;-68
2022/05/12 08:45:54;;;;;;;4.33;2.10;;;;;;;39.19;16.47;98587.48;1617153;88;21381;-67
2022/05/12 08:48:20;;;;;;;7.42;1.98;;;;;;;39.57;16.17;98582.70;1668266;86;21171;-67
2022/05/12 08:50:51;;;;;;;4.62;2.05;;;;;;;39.90;15.68;98573.69;1666539;86;21076;-71
2022/05/12 08:53:21;;;;;;;8.85;2.70;;;;;;;39.98;15.64;98572.56;1634628;87;21199;-67
2022/05/12 08:55:54;;;;;;;7.53;2.52;;;;;;;40.25;15.34;98561.23;1614327;87;20994;-67
2022/05/12 08:58:33;;;;;;;3.90;1.98;;;;;;;40.45;15.27;98569.52;1616566;88;21117;-68
2022/05/12 09:01:11;;;;;;;5.65;2.27;;;;;;;40.73;15.08;98574.48;1675413;85;21814;-70
2022/05/12 09:04:04;;;;;;;7.12;2.33;;;;;;;40.75;14.74;98561.75;1632325;88;20948;-67
2022/05/12 09:06:57;;;;;;;5.67;2.60;;;;;;;40.52;14.88;98564.00;1662778;86;21615;-68
2022/05/12 09:09:44;;;;;;;3.67;2.20;;;;;;;40.16;15.19;98556.59;1632446;88;21521;-68
2022/05/12 09:12:47;;;;;;;7.47;2.27;;;;;;;40.16;15.42;98545.45;1662916;86;21501;-70
2022/05/12 09:15:28;;;;;;;6.55;2.33;;;;;;;40.54;15.02;98545.73;1632478;88;21299;-71
2022/05/12 09:18:01;;;;;;;4.17;2.40;;;;;;;41.09;14.62;98545.56;1634283;85;21082;-68
2022/05/12 09:20:31;;;;;;;7.50;2.17;;;;;;;41.43;14.32;98543.27;1664712;85;21478;-69
2022/05/12 09:22:59;;;;;;;6.17;1.98;;;;;;;41.45;14.10;98532.50;1666715;86;20916;-69
2022/05/12 09:25:41;;;;;;;2.65;2.00;;;;;;;41.52;13.91;98534.70;1666545;86;21533;-68
2022/05/12 09:28:34;;;;;;;7.33;2.00;;;;;;;41.66;13.73;98532.52;1648820;86;21256;-68
2022/05/12 09:31:15;;;;;;;7.60;2.50;;;;;;;41.62;13.68;98520.53;1665918;85;20984;-68
2022/05/12 09:33:44;;;;;;;5.53;2.42;;;;;;;41.55;13.56;98519.95;1665973;86;21091;-67
2022/05/12 09:36:25;;;;;;;8.35;2.40;;;;;;;41.65;13.81;98529.52;1666413;86;21030;-68
2022/05/12 09:38:54;;;;;;;4.15;2.33;;;;;;;41.90;13.47;98509.38;1666547;86;20877;-69
2022/05/12 09:41:22;;;;;;;12.25;2.30;;;;;;;41.96;13.62;98504.19;1666426;86;21372;-70
2022/05/12 09:43:51;;;;;;;14.30;2.47;;;;;;;41.99;13.55;98509.77;1666413;86;20944;-67
2022/05/12 09:46:24;;;;;;;8.18;2.17;;;;;;;42.12;13.56;98510.14;1666371;85;20951;-68
2022/05/12 09:48:51;;;;;;;4.85;2.20;;;;;;;42.16;13.43;98503.37;1666380;86;20939;-68
2022/05/12 09:51:32;;;;;;;6.17;2.20;;;;;;;42.26;13.43;98496.98;1666492;86;20972;-68
2022/05/12 09:54:29;;;;;;;8.00;2.40;;;;;;;42.35;13.14;98502.13;1666439;86;21298;-66
2022/05/12 09:56:59;;;;;;;8.78;2.15;;;;;;;42.11;13.37;98492.58;1666442;86;21557;-67
2022/05/12 09:59:28;;;;;;;6.47;2.42;;;;;;;41.66;13.61;98487.84;1666707;86;20999;-67
2022/05/12 10:02:02;;;;;;;10.10;2.92;;;;;;;41.53;13.81;98494.44;1666380;86;21522;-67
2022/05/12 10:10:26;;;;;;;16.95;2.75;;;;;;;37.98;16.36;98487.01;1666404;86;21422;-69
2022/05/12 10:13:04;;;;;;;11.00;2.40;;;;;;;36.94;17.38;98473.68;1666541;86;21007;-67
2022/05/12 10:15:35;;;;;;;4.30;2.40;;;;;;;36.11;18.17;98484.02;1666426;86;20924;-67
2022/05/12 10:18:18;;;;;;;5.12;2.47;;;;;;;35.32;19.14;98488.78;1666355;86;20947;-68
2022/05/12 10:20:49;;;;;;;11.00;2.90;;;;;;;34.77;19.79;98477.22;1666242;86;21340;-67
2022/05/12 10:23:44;;;;;;;11.28;2.60;;;;;;;34.43;20.46;98498.49;1666468;86;20912;-67
2022/05/12 10:26:20;;;;;;;7.15;2.62;;;;;;;34.12;20.57;98477.89;1666718;86;21594;-68
2022/05/12 10:29:02;;;;;;;7.85;2.75;;;;;;;33.66;21.07;98481.70;1666537;86;20964;-70
2022/05/12 10:31:42;;;;;;;6.50;3.05;;;;;;;33.25;21.76;98477.16;1666472;86;20960;-67
2022/05/12 10:34:38;;;;;;;12.55;3.35;;;;;;;33.16;22.51;98473.71;1666440;86;21162;-67
2022/05/12 10:37:50;;;;;;;9.38;2.60;;;;;;;33.41;21.78;98467.07;1666545;86;20956;-65
2022/05/12 10:40:43;;;;;;;18.05;2.67;;;;;;;33.01;22.28;98472.38;1591058;90;20974;-68
2022/05/12 10:43:59;;;;;;;4.33;2.30;;;;;;;32.90;22.67;98466.49;1596183;90;20990;-67
2022/05/12 10:46:45;;;;;;;8.70;2.37;;;;;;;32.98;22.81;98450.23;1600069;89;20972;-68
2022/05/12 10:49:32;;;;;;;5.10;2.20;;;;;;;33.00;22.62;98457.01;1713177;83;21222;-70
2022/05/12 10:52:29;;;;;;;6.20;2.30;;;;;;;32.98;22.86;98460.09;1712811;83;21444;-69
2022/05/12 10:55:28;;;;;;;8.08;2.80;;;;;;;32.98;22.88;98460.69;1713139;83;21489;-68
2022/05/12 10:58:20;;;;;;;6.08;2.70;;;;;;;32.93;22.54;98443.78;1712755;83;21123;-67
2022/05/12 11:01:16;;;;;;;5.35;2.85;;;;;;;32.72;22.80;98432.02;1713220;83;21066;-67
2022/05/12 11:03:59;;;;;;;3.80;2.20;;;;;;;32.55;23.06;98444.59;1713357;83;21843;-70
2022/05/12 11:06:32;;;;;;;9.93;2.47;;;;;;;32.53;23.06;98440.01;1712958;83;21034;-69
2022/05/12 11:09:04;;;;;;;12.25;2.90;;;;;;;32.50;23.08;98442.59;1712410;83;20891;-67
2022/05/12 11:11:40;;;;;;;5.62;2.50;;;;;;;32.41;23.08;98419.86;1713370;83;20959;-69
2022/05/12 11:14:31;;;;;;;9.38;2.22;;;;;;;32.38;22.92;98426.84;1713401;83;21022;-65
2022/05/12 11:17:18;;;;;;;7.15;2.50;;;;;;;32.35;22.91;98430.27;1713280;82;22090;-70
2022/05/12 11:19:51;;;;;;;7.17;2.50;;;;;;;32.33;23.36;98425.66;1716586;83;21519;-67
2022/05/12 11:22:37;;;;;;;8.48;1.90;;;;;;;32.31;23.25;98416.37;1718260;83;20994;-67
2022/05/12 11:25:21;;;;;;;41.15;4.17;;;;;;;32.41;23.21;98433.03;1718664;83;20910;-67
2022/05/12 11:31:45;;;;;;;8.05;2.30;;;;;;;32.49;22.95;98413.45;1718827;83;21156;-69
2022/05/12 11:34:19;;;;;;;9.10;2.58;;;;;;;32.57;23.15;98419.47;1718533;83;20958;-68
2022/05/12 11:36:50;;;;;;;10.93;3.15;;;;;;;32.51;22.90;98425.75;1718690;83;20994;-67
2022/05/12 11:39:27;;;;;;;23.52;4.03;;;;;;;32.48;22.73;98400.84;1718371;83;20963;-68
2022/05/12 11:42:24;;;;;;;16.23;3.67;;;;;;;32.31;22.76;98419.12;1718669;83;20954;-65
2022/05/12 11:45:08;;;;;;;4.08;2.42;;;;;;;32.19;23.23;98410.02;1718714;83;27050;-68
2022/05/12 11:48:11;;;;;;;5.58;2.27;;;;;;;32.12;23.46;98416.05;1714928;83;21491;-66
2022/05/12 11:50:49;;;;;;;6.58;2.52;;;;;;;32.08;23.45;98397.80;1718684;83;21477;-66
2022/05/12 11:53:20;;;;;;;5.75;2.77;;;;;;;32.01;23.47;98407.98;1718772;83;21069;-67
2022/05/12 11:56:11;;;;;;;6.42;2.15;;;;;;;31.87;23.67;98402.47;1718621;83;21500;-67
2022/05/12 11:58:43;;;;;;;7.92;3.10;;;;;;;31.82;23.82;98403.48;1718636;83;21795;-67
2022/05/12 12:01:26;;;;;;;8.65;2.30;;;;;;;31.71;23.87;98401.69;1718590;83;20895;-67
2022/05/12 12:03:59;;;;;;;10.45;2.60;;;;;;;31.74;24.27;98402.41;1719324;82;21528;-68
2022/05/12 12:06:48;;;;;;;11.03;2.55;;;;;;;31.80;24.41;98385.14;1718617;83;21531;-68
2022/05/12 12:09:41;;;;;;;7.55;2.62;;;;;;;31.80;24.17;98395.33;1718320;82;20990;-67
2022/05/12 12:12:11;;;;;;;10.20;2.37;;;;;;;31.82;24.41;98390.30;1718648;83;21251;-66
2022/05/12 12:14:53;;;;;;;10.35;2.60;;;;;;;31.87;24.56;98375.78;1718685;83;20891;-67